createdAt,value
2023-01-29T00:00:11.082Z,0.88
2023-01-29T00:03:15.916Z,0.84
2023-01-29T00:06:20.272Z,0.83
2023-01-29T00:09:25.598Z,0.81
2023-01-29T00:12:30.160Z,0.75
2023-01-29T00:15:34.353Z,0.71
2023-01-29T00:18:43.091Z,0.77
2023-01-29T00:21:49.460Z,0.69
2023-01-29T00:24:54.011Z,0.64
2023-01-29T00:27:59.930Z,0.65
2023-01-29T00:31:15.883Z,0.64
2023-01-29T00:34:25.267Z,0.57
2023-01-29T00:37:30.504Z,0.48
2023-01-29T00:40:53.829Z,0.48
2023-01-29T00:44:18.136Z,0.49
2023-01-29T00:47:40.090Z,0.50
2023-01-29T00:50:45.240Z,0.43
2023-01-29T00:53:52.444Z,0.46
2023-01-29T00:56:58.990Z,0.43
2023-01-29T01:00:06.591Z,0.44
2023-01-29T01:03:12.549Z,0.39
2023-01-29T01:06:17.273Z,0.28
2023-01-29T01:09:40.255Z,0.21
2023-01-29T01:12:45.386Z,0.17
2023-01-29T01:15:49.419Z,0.07
2023-01-29T01:18:53.807Z,0.08
2023-01-29T01:21:58.041Z,-0.01
2023-01-29T01:25:01.766Z,-0.15
2023-01-29T01:28:05.333Z,-0.28
2023-01-29T01:31:13.652Z,-0.36
2023-01-29T01:34:18.843Z,-0.41
2023-01-29T01:37:23.412Z,-0.50
2023-01-29T01:40:27.330Z,-0.55
2023-01-29T01:43:48.646Z,-0.51
2023-01-29T01:46:53.016Z,-0.46
2023-01-29T01:50:03.418Z,-0.45
2023-01-29T01:53:11.395Z,-0.48
2023-01-29T01:56:20.575Z,-0.55
2023-01-29T01:59:25.108Z,-0.60
2023-01-29T02:02:47.006Z,-0.63
2023-01-29T02:06:09.746Z,-0.67
2023-01-29T02:09:35.401Z,-0.78
2023-01-29T02:12:39.304Z,-0.80
2023-01-29T02:15:47.620Z,-0.85
2023-01-29T02:18:51.943Z,-0.86
2023-01-29T02:22:29.949Z,-0.93
2023-01-29T02:26:18.820Z,-0.97
2023-01-29T02:29:36.756Z,-0.95
2023-01-29T02:32:59.596Z,-0.99
2023-01-29T02:36:25.518Z,-1.06
2023-01-29T02:39:49.728Z,-1.05
2023-01-29T02:43:06.007Z,-1.13
2023-01-29T02:46:13.517Z,-1.12
2023-01-29T02:49:36.766Z,-1.16
2023-01-29T02:53:01.578Z,-1.22
2023-01-29T02:56:17.571Z,-1.28
2023-01-29T02:59:35.719Z,-1.33
2023-01-29T03:02:58.572Z,-1.35
2023-01-29T03:06:23.408Z,-1.32
2023-01-29T03:09:52.201Z,-1.35
2023-01-29T03:13:08.167Z,-1.34
2023-01-29T03:16:27.785Z,-1.29
2023-01-29T03:19:51.116Z,-1.28
2023-01-29T03:23:10.519Z,-1.23
2023-01-29T03:26:36.425Z,-1.16
2023-01-29T04:43:36.172Z,0.05
2023-01-29T05:06:33.923Z,0.07
2023-01-29T05:14:20.806Z,0.13
2023-01-29T05:40:16.064Z,0.12
2023-01-29T05:43:35.092Z,0.14
2023-01-29T06:09:20.149Z,0.24
2023-01-29T06:12:27.849Z,0.34
2023-01-29T06:22:39.316Z,0.31
2023-01-29T06:29:18.785Z,0.09
2023-01-29T06:32:47.434Z,0.12
2023-01-29T06:36:01.344Z,0.04
2023-01-29T06:39:19.033Z,-0.09
2023-01-29T06:42:34.601Z,-0.11
2023-01-29T06:45:54.428Z,-0.13
2023-01-29T06:49:02.139Z,-0.11
2023-01-29T06:55:56.589Z,-0.17
2023-01-29T06:59:04.196Z,-0.07
2023-01-29T07:02:32.464Z,-0.10
2023-01-29T07:05:47.923Z,-0.20
2023-01-29T07:09:00.559Z,-0.11
2023-01-29T07:12:31.097Z,-0.16
2023-01-29T07:15:37.316Z,-0.19
2023-01-29T07:18:45.348Z,-0.15
2023-01-29T08:10:47.238Z,0.28
2023-01-29T08:14:01.287Z,0.30
2023-01-29T08:17:14.522Z,0.42
2023-01-29T08:20:34.616Z,0.34
2023-01-29T08:27:11.848Z,0.47
2023-01-29T08:30:18.445Z,0.50
2023-01-29T08:33:38.338Z,0.67
2023-01-29T08:36:55.497Z,0.34
2023-01-29T08:40:14.275Z,0.54
2023-01-29T08:43:27.087Z,0.58
2023-01-29T08:46:45.228Z,0.85
2023-01-29T08:49:56.401Z,0.82
2023-01-29T08:53:33.090Z,0.67
2023-01-29T09:00:35.480Z,0.92
2023-01-29T09:03:49.682Z,0.57
2023-01-29T09:07:09.569Z,0.54
2023-01-29T09:10:17.754Z,0.50
2023-01-29T09:13:31.882Z,0.62
2023-01-29T09:23:25.250Z,0.61
2023-01-29T09:26:34.287Z,0.59
2023-01-29T09:29:42.138Z,0.43
2023-01-29T09:32:56.183Z,0.57
2023-01-29T09:36:00.298Z,0.35
2023-01-29T09:39:16.455Z,0.64
2023-01-29T09:46:17.202Z,0.74
2023-01-29T09:49:42.392Z,0.91
2023-01-29T09:53:21.823Z,0.96
2023-01-29T09:56:30.323Z,0.71
2023-01-29T09:59:35.444Z,0.62
2023-01-29T10:02:58.929Z,0.68
2023-01-29T10:06:37.330Z,0.64
2023-01-29T10:10:19.760Z,0.70
2023-01-29T10:13:50.384Z,0.82
2023-01-29T10:17:22.529Z,0.55
2023-01-29T10:21:19.825Z,0.54
2023-01-29T10:24:57.843Z,0.72
2023-01-29T10:31:35.409Z,0.91
2023-01-29T10:35:01.287Z,0.88
2023-01-29T10:38:51.647Z,0.51
2023-01-29T10:42:19.973Z,0.52
2023-01-29T10:45:51.754Z,0.58
2023-01-29T10:53:23.223Z,0.36
2023-01-29T10:56:55.183Z,0.41
2023-01-29T11:00:09.255Z,0.47
2023-01-29T11:03:39.902Z,0.31
2023-01-29T11:06:48.408Z,0.48
2023-01-29T11:10:20.897Z,0.61
2023-01-29T11:13:38.159Z,0.73
2023-01-29T11:16:46.360Z,0.59
2023-01-29T11:19:54.208Z,0.40
2023-01-29T11:23:03.480Z,0.44
2023-01-29T11:26:10.375Z,0.54
2023-01-29T11:29:51.956Z,0.32
2023-01-29T11:33:26.958Z,0.33
2023-01-29T11:36:58.458Z,0.75
2023-01-29T11:40:28.796Z,0.80
2023-01-29T11:43:45.147Z,0.74
2023-01-29T11:46:50.184Z,0.65
2023-01-29T11:49:58.302Z,0.74
2023-01-29T11:53:10.910Z,0.88
2023-01-29T11:56:42.888Z,0.91
2023-01-29T11:59:53.089Z,0.92
2023-01-29T12:03:11.956Z,0.88
2023-01-29T12:06:40.693Z,1.10
2023-01-29T12:09:53.204Z,1.28
2023-01-29T12:13:12.237Z,1.31
2023-01-29T12:16:27.826Z,1.09
2023-01-29T12:20:10.844Z,0.79
2023-01-29T12:23:36.999Z,0.95
2023-01-29T12:26:53.779Z,0.97
2023-01-29T12:30:01.732Z,1.08
2023-01-29T12:33:39.422Z,1.19
2023-01-29T12:36:49.082Z,1.47
2023-01-29T12:39:56.959Z,1.66
2023-01-29T12:43:28.825Z,1.64
2023-01-29T12:46:44.192Z,1.58
2023-01-29T12:49:57.547Z,1.74
2023-01-29T12:53:42.472Z,1.79
2023-01-29T12:57:04.492Z,1.20
2023-01-29T13:00:22.004Z,0.90
2023-01-29T13:03:55.911Z,0.53
2023-01-29T13:07:17.835Z,0.55
2023-01-29T13:10:36.504Z,0.05
2023-01-29T13:13:57.623Z,-0.11
2023-01-29T13:17:24.362Z,-0.47
2023-01-29T13:20:33.442Z,-0.49
2023-01-29T13:23:57.916Z,-0.56
2023-01-29T13:27:09.487Z,-0.59
2023-01-29T13:30:36.766Z,-0.64
2023-01-29T13:33:44.848Z,-0.60
2023-01-29T13:36:56.028Z,-0.40
2023-01-29T13:40:08.268Z,-0.31
2023-01-29T13:43:25.775Z,-0.55
2023-01-29T13:46:32.284Z,-0.59
2023-01-29T13:49:44.459Z,-0.71
2023-01-29T13:53:07.211Z,-0.65
2023-01-29T13:56:30.973Z,-0.74
2023-01-29T13:59:57.743Z,-0.83
2023-01-29T14:04:02.178Z,-0.94
2023-01-29T14:07:53.882Z,-1.03
2023-01-29T14:11:25.743Z,-1.06
2023-01-29T14:15:07.539Z,-0.89
2023-01-29T14:18:23.985Z,-0.77
2023-01-29T14:21:34.105Z,-0.68
2023-01-29T14:24:49.311Z,-0.65
2023-01-29T14:27:56.501Z,-0.43
2023-01-29T14:31:04.372Z,-0.40
2023-01-29T14:34:17.203Z,-0.60
2023-01-29T14:41:31.000Z,-0.63
2023-01-29T14:45:02.841Z,-0.73
2023-01-29T14:49:04.332Z,-0.83
2023-01-29T14:52:14.184Z,-0.72
2023-01-29T14:55:47.079Z,-0.72
2023-01-29T14:58:57.218Z,-0.81
2023-01-29T15:02:11.209Z,-0.78
2023-01-29T15:05:21.958Z,-0.81
2023-01-29T15:12:23.047Z,-0.93
2023-01-29T15:15:52.878Z,-1.03
2023-01-29T15:19:06.430Z,-1.09
2023-01-29T15:22:30.175Z,-1.18
2023-01-29T15:25:51.516Z,-1.21
2023-01-29T15:29:05.117Z,-1.14
2023-01-29T15:32:16.960Z,-1.20
2023-01-29T15:35:31.083Z,-1.35
2023-01-29T15:38:40.725Z,-1.39
2023-01-29T15:41:46.895Z,-1.47
2023-01-29T15:44:57.683Z,-1.53
2023-01-29T15:48:24.021Z,-1.58
2023-01-29T15:51:30.385Z,-1.65
2023-01-29T15:54:36.409Z,-1.67
2023-01-29T15:57:46.596Z,-1.64
2023-01-29T16:00:55.937Z,-1.72
2023-01-29T16:04:05.434Z,-1.78
2023-01-29T16:07:10.419Z,-1.78
2023-01-29T16:10:50.168Z,-1.86
2023-01-29T16:14:04.027Z,-1.88
2023-01-29T16:17:38.236Z,-1.96
2023-01-29T16:20:47.881Z,-1.99
2023-01-29T16:24:00.651Z,-1.92
2023-01-29T16:27:19.893Z,-1.91
2023-01-29T16:30:32.310Z,-1.98
2023-01-29T16:33:47.561Z,-1.98
2023-01-29T16:36:53.536Z,-1.97
2023-01-29T16:40:06.678Z,-2.02
2023-01-29T16:43:26.171Z,-2.01
2023-01-29T16:46:46.137Z,-2.10
2023-01-29T16:49:58.009Z,-2.14
2023-01-29T16:53:15.151Z,-2.12
2023-01-29T16:56:28.148Z,-2.12
2023-01-29T16:59:38.860Z,-2.12
2023-01-29T17:02:43.782Z,-2.14
2023-01-29T17:05:48.789Z,-2.03
2023-01-29T17:08:52.706Z,-2.14
2023-01-29T17:12:01.224Z,-2.12
2023-01-29T17:15:29.505Z,-2.17
2023-01-29T17:18:38.034Z,-2.12
2023-01-29T17:21:49.034Z,-2.11
2023-01-29T17:24:54.034Z,-2.12
2023-01-29T17:28:00.920Z,-2.13
2023-01-29T17:31:06.983Z,-2.19
2023-01-29T17:34:26.965Z,-2.17
2023-01-29T17:37:32.746Z,-2.26
2023-01-29T17:41:09.610Z,-2.27
2023-01-29T17:44:13.669Z,-2.31
2023-01-29T17:47:17.638Z,-2.39
2023-01-29T17:50:27.375Z,-2.39
2023-01-29T17:53:44.878Z,-2.37
2023-01-29T17:56:53.221Z,-2.42
2023-01-29T17:59:56.449Z,-2.44
2023-01-29T18:03:02.984Z,-2.38
2023-01-29T18:06:09.885Z,-2.42
2023-01-29T18:09:15.712Z,-2.54
2023-01-29T18:12:19.421Z,-2.57
2023-01-29T18:15:24.544Z,-2.61
2023-01-29T18:18:29.320Z,-2.60
2023-01-29T18:21:32.639Z,-2.66
2023-01-29T18:24:38.960Z,-2.67
2023-01-29T18:27:44.296Z,-2.72
2023-01-29T18:30:48.026Z,-2.73
2023-01-29T18:33:53.249Z,-2.70
2023-01-29T18:37:00.846Z,-2.80
2023-01-29T18:40:05.588Z,-2.80
2023-01-29T18:43:10.213Z,-2.91
2023-01-29T18:46:13.564Z,-2.94
2023-01-29T18:49:18.029Z,-2.93
2023-01-29T18:52:22.452Z,-2.97
2023-01-29T18:55:27.086Z,-2.98
2023-01-29T18:58:38.363Z,-3.01
2023-01-29T19:01:42.478Z,-3.04
2023-01-29T19:04:47.212Z,-3.04
2023-01-29T19:07:52.290Z,-3.02
2023-01-29T19:10:56.882Z,-3.01
2023-01-29T19:14:01.025Z,-3.04
2023-01-29T19:17:08.044Z,-3.11
2023-01-29T19:20:12.706Z,-3.13
2023-01-29T19:23:16.834Z,-3.07
2023-01-29T19:26:20.753Z,-3.04
2023-01-29T19:29:24.845Z,-3.01
2023-01-29T19:32:31.852Z,-2.95
2023-01-29T19:35:35.546Z,-2.94
2023-01-29T19:38:39.422Z,-2.99
2023-01-29T19:41:44.074Z,-2.90
2023-01-29T19:44:47.373Z,-2.98
2023-01-29T19:47:51.191Z,-2.92
2023-01-29T19:51:00.041Z,-2.97
2023-01-29T19:54:05.047Z,-2.98
2023-01-29T19:57:08.384Z,-2.98
2023-01-29T20:00:16.355Z,-2.99
2023-01-29T20:03:21.530Z,-3.01
2023-01-29T20:06:31.537Z,-2.93
2023-01-29T20:09:35.496Z,-2.87
2023-01-29T20:12:39.784Z,-2.90
2023-01-29T20:15:50.456Z,-2.93
2023-01-29T20:18:53.751Z,-2.96
2023-01-29T20:21:56.854Z,-2.89
2023-01-29T20:25:00.699Z,-2.91
2023-01-29T20:28:07.107Z,-2.97
2023-01-29T20:31:11.442Z,-2.97
2023-01-29T20:34:14.885Z,-3.00
2023-01-29T20:37:17.991Z,-3.00
2023-01-29T20:40:21.008Z,-3.07
2023-01-29T20:43:24.717Z,-3.05
2023-01-29T20:46:29.219Z,-2.95
2023-01-29T20:49:32.599Z,-2.87
2023-01-29T20:52:41.231Z,-2.98
2023-01-29T20:55:46.003Z,-3.05
2023-01-29T20:58:48.744Z,-3.07
2023-01-29T21:01:53.122Z,-3.01
2023-01-29T21:04:57.729Z,-3.08
2023-01-29T21:08:01.238Z,-3.04
2023-01-29T21:11:09.929Z,-3.04
2023-01-29T21:14:16.628Z,-3.07
2023-01-29T21:17:23.522Z,-3.11
2023-01-29T21:20:28.011Z,-3.15
2023-01-29T21:23:31.268Z,-3.14
2023-01-29T21:26:34.868Z,-3.03
2023-01-29T21:29:42.838Z,-3.11
2023-01-29T21:32:49.512Z,-3.12
2023-01-29T21:35:59.876Z,-3.05
2023-01-29T21:39:18.427Z,-3.03
2023-01-29T21:42:41.995Z,-3.11
2023-01-29T21:45:47.772Z,-3.12
2023-01-29T21:48:52.445Z,-3.18
2023-01-29T21:51:57.723Z,-3.20
2023-01-29T21:55:02.050Z,-3.24
2023-01-29T21:58:08.349Z,-3.28
2023-01-29T22:01:37.560Z,-3.28
2023-01-29T22:04:37.640Z,-3.28
2023-01-29T22:07:41.343Z,-3.31
2023-01-29T22:10:44.944Z,-3.35
2023-01-29T22:13:49.824Z,-3.32
2023-01-29T22:16:55.598Z,-3.33
2023-01-29T22:19:59.342Z,-3.36
2023-01-29T22:23:04.102Z,-3.34
2023-01-29T22:26:10.584Z,-3.32
2023-01-29T22:29:20.619Z,-3.30
2023-01-29T22:32:24.792Z,-3.27
2023-01-29T22:35:29.361Z,-3.20
2023-01-29T22:38:35.129Z,-3.21
2023-01-29T22:41:39.742Z,-3.14
2023-01-29T22:44:43.236Z,-3.13
2023-01-29T22:47:46.447Z,-3.14
2023-01-29T22:51:10.339Z,-3.02
2023-01-29T22:54:16.058Z,-3.14
2023-01-29T22:57:21.513Z,-3.19
2023-01-29T23:00:27.370Z,-3.16
2023-01-29T23:03:31.679Z,-3.12
2023-01-29T23:06:35.427Z,-3.12
2023-01-29T23:09:38.522Z,-3.18
2023-01-29T23:12:42.316Z,-3.26
2023-01-29T23:15:47.890Z,-3.24
2023-01-29T23:18:53.705Z,-3.30
2023-01-29T23:21:56.745Z,-3.30
2023-01-29T23:25:03.244Z,-3.31
2023-01-29T23:28:07.171Z,-3.32
2023-01-29T23:31:12.118Z,-3.31
2023-01-29T23:34:18.164Z,-3.40
2023-01-29T23:37:21.561Z,-3.58
2023-01-29T23:40:24.504Z,-3.61
2023-01-29T23:43:29.484Z,-3.63
2023-01-29T23:46:33.419Z,-3.73
2023-01-29T23:49:38.024Z,-3.66
2023-01-29T23:52:42.331Z,-3.77
2023-01-29T23:55:59.878Z,-3.80
2023-01-29T23:59:03.277Z,-3.96
